Time;durP1;ratioP1;P1;durP2;ratioP2;P2;SDS_P1;SDS_P2;PMS_P1;PMS_P2;Temp;Humidity;BMP_temperature;BMP_pressure;BME280_temperature;BME280_humidity;BME280_pressure;Samples;Min_cycle;Max_cycle;Signal;HPM_P1;HPM_P2
2022/10/26 00:00:08;;;;;;;;;5.50;3.00;;;;;;;;4981677;28;45765;-65
2022/10/26 00:02:33;;;;;;;;;7.33;4.67;;;;;;;;4994317;28;45361;-66
2022/10/26 00:04:58;;;;;;;;;3.75;3.50;;;;;;;;4995192;28;45925;-64
2022/10/26 00:07:24;;;;;;;;;5.33;5.33;;;;;;;;4988175;28;46051;-65
2022/10/26 00:09:49;;;;;;;;;5.00;4.00;;;;;;;;4992503;28;45724;-65
2022/10/26 00:12:14;;;;;;;;;3.75;3.25;;;;;;;;4998359;28;45558;-66
2022/10/26 00:14:40;;;;;;;;;4.00;4.00;;;;;;;;4994118;28;45656;-66
2022/10/26 00:17:05;;;;;;;;;6.00;4.75;;;;;;;;4994224;28;46161;-65
2022/10/26 00:19:34;;;;;;;;;5.25;3.00;;;;;;;;4995027;28;45563;-65
2022/10/26 00:21:59;;;;;;;;;5.00;3.75;;;;;;;;4993817;28;45731;-65
2022/10/26 00:24:24;;;;;;;;;3.00;3.00;;;;;;;;4993563;28;45622;-66
2022/10/26 00:26:50;;;;;;;;;2.00;2.00;;;;;;;;4993560;28;45775;-65
2022/10/26 00:29:17;;;;;;;;;5.25;3.00;;;;;;;;4993147;28;45715;-66
2022/10/26 00:31:42;;;;;;;;;4.00;4.00;;;;;;;;4976193;28;45418;-65
2022/10/26 00:34:09;;;;;;;;;4.75;4.75;;;;;;;;4993510;28;45618;-63
2022/10/26 00:36:35;;;;;;;;;5.00;4.00;;;;;;;;5003036;28;46182;-64
2022/10/26 00:39:00;;;;;;;;;4.00;4.00;;;;;;;;5007887;28;45659;-65
2022/10/26 00:41:28;;;;;;;;;2.50;2.50;;;;;;;;4999283;28;45627;-65
2022/10/26 00:43:53;;;;;;;;;3.25;3.00;;;;;;;;5001321;28;45740;-65
2022/10/26 00:46:21;;;;;;;;;4.00;4.00;;;;;;;;4998480;28;45419;-64
2022/10/26 00:48:51;;;;;;;;;4.33;4.33;;;;;;;;4993928;28;45797;-64
2022/10/26 00:51:24;;;;;;;;;6.00;5.00;;;;;;;;4993423;28;45363;-63
2022/10/26 00:53:50;;;;;;;;;5.00;4.00;;;;;;;;5001847;28;45845;-64
2022/10/26 00:56:16;;;;;;;;;6.50;3.25;;;;;;;;4976561;28;47028;-63
2022/10/26 00:58:42;;;;;;;;;4.67;3.00;;;;;;;;4993675;28;45356;-66
2022/10/26 01:01:07;;;;;;;;;5.00;3.75;;;;;;;;4993947;28;45657;-64
2022/10/26 01:03:34;;;;;;;;;4.00;3.00;;;;;;;;4976628;28;46699;-64
2022/10/26 01:06:01;;;;;;;;;3.75;2.00;;;;;;;;4982685;28;47393;-65
2022/10/26 01:08:27;;;;;;;;;5.00;4.50;;;;;;;;4975875;28;45585;-66
2022/10/26 01:10:53;;;;;;;;;6.50;3.50;;;;;;;;5004939;28;45785;-63
2022/10/26 01:13:19;;;;;;;;;4.00;3.00;;;;;;;;4993237;28;45706;-65
2022/10/26 01:15:52;;;;;;;;;6.00;3.00;;;;;;;;4993463;28;46245;-66
2022/10/26 01:18:17;;;;;;;;;7.00;4.00;;;;;;;;5001990;28;45921;-67
2022/10/26 01:20:42;;;;;;;;;7.00;5.00;;;;;;;;4993055;28;45856;-65
2022/10/26 01:23:24;;;;;;;;;5.00;4.50;;;;;;;;4992902;28;45407;-64
2022/10/26 01:25:49;;;;;;;;;4.00;4.00;;;;;;;;4981801;28;46064;-65
2022/10/26 01:28:34;;;;;;;;;7.00;6.33;;;;;;;;4974906;28;45594;-64
2022/10/26 01:31:01;;;;;;;;;5.33;5.33;;;;;;;;4975831;28;45660;-65
2022/10/26 01:33:38;;;;;;;;;4.00;4.00;;;;;;;;4992711;28;45501;-67
2022/10/26 01:36:29;;;;;;;;;5.00;5.00;;;;;;;;4993621;28;45653;-72
2022/10/26 01:38:56;;;;;;;;;5.00;5.00;;;;;;;;4992712;28;45740;-72
2022/10/26 01:41:22;;;;;;;;;5.00;5.00;;;;;;;;4993406;28;45428;-71
2022/10/26 01:44:16;;;;;;;;;5.00;5.00;;;;;;;;5001930;28;45383;-71
2022/10/26 01:46:43;;;;;;;;;6.00;5.00;;;;;;;;4979080;28;46262;-70
2022/10/26 01:49:10;;;;;;;;;7.67;5.00;;;;;;;;4992640;28;45706;-71
2022/10/26 01:51:37;;;;;;;;;6.67;6.67;;;;;;;;5011489;22;45375;-79
2022/10/26 01:54:02;;;;;;;;;4.00;4.00;;;;;;;;4985791;28;45932;-80
2022/10/26 01:56:29;;;;;;;;;4.00;3.00;;;;;;;;5004665;28;46157;-84
2022/10/26 01:59:13;;;;;;;;;4.00;2.25;;;;;;;;4989427;28;45705;-84
2022/10/26 02:01:43;;;;;;;;;4.00;3.00;;;;;;;;5007366;28;45765;-82
2022/10/26 02:04:41;;;;;;;;;3.25;3.25;;;;;;;;5001895;28;45908;-83
2022/10/26 02:07:37;;;;;;;;;4.50;2.75;;;;;;;;5013692;28;46192;-75
2022/10/26 02:10:18;;;;;;;;;5.67;4.67;;;;;;;;4989806;28;45360;-79
2022/10/26 02:12:52;;;;;;;;;3.25;2.00;;;;;;;;4996321;28;45477;-79
2022/10/26 02:15:26;;;;;;;;;4.50;3.50;;;;;;;;5013572;28;45436;-77
2022/10/26 02:17:54;;;;;;;;;5.75;3.00;;;;;;;;4992441;28;46842;-78
2022/10/26 02:20:23;;;;;;;;;5.67;4.33;;;;;;;;5001058;28;45972;-78
2022/10/26 02:22:49;;;;;;;;;4.50;3.50;;;;;;;;5006183;28;45578;-78
2022/10/26 02:25:16;;;;;;;;;2.75;2.75;;;;;;;;4994712;28;45954;-79
2022/10/26 02:27:44;;;;;;;;;3.75;3.75;;;;;;;;5001967;28;47681;-77
2022/10/26 02:30:13;;;;;;;;;3.00;3.00;;;;;;;;5008307;28;45415;-83
2022/10/26 02:32:49;;;;;;;;;3.00;3.00;;;;;;;;5032622;28;45277;-82
2022/10/26 02:35:16;;;;;;;;;3.75;3.75;;;;;;;;5006946;28;45242;-77
2022/10/26 02:37:43;;;;;;;;;2.00;2.00;;;;;;;;4993877;28;46029;-79
2022/10/26 02:40:10;;;;;;;;;3.00;3.00;;;;;;;;4993809;28;45525;-77
2022/10/26 02:42:36;;;;;;;;;1.75;1.75;;;;;;;;5019343;28;45915;-83
2022/10/26 02:45:04;;;;;;;;;3.00;3.00;;;;;;;;5026697;28;45911;-83
2022/10/26 02:47:30;;;;;;;;;3.50;3.00;;;;;;;;5026329;28;45566;-83
2022/10/26 02:49:55;;;;;;;;;4.25;3.00;;;;;;;;5021162;28;45411;-84
2022/10/26 02:52:40;;;;;;;;;4.00;2.50;;;;;;;;4988709;28;45391;-78
2022/10/26 02:55:17;;;;;;;;;2.00;2.00;;;;;;;;4989051;28;46281;-77
2022/10/26 02:57:48;;;;;;;;;3.25;2.25;;;;;;;;4999362;28;45717;-78
2022/10/26 03:00:14;;;;;;;;;3.00;2.75;;;;;;;;4983440;28;45401;-77
2022/10/26 03:02:47;;;;;;;;;4.00;2.50;;;;;;;;4993378;28;45629;-77
2022/10/26 03:05:19;;;;;;;;;3.00;3.00;;;;;;;;4996054;28;45504;-78
2022/10/26 03:07:44;;;;;;;;;4.50;2.25;;;;;;;;5000230;28;45503;-77
2022/10/26 03:10:10;;;;;;;;;3.50;1.50;;;;;;;;4995908;28;45745;-78
2022/10/26 03:12:35;;;;;;;;;4.00;3.00;;;;;;;;5002580;28;45524;-77
2022/10/26 03:15:02;;;;;;;;;2.00;2.00;;;;;;;;4999031;28;45830;-79
2022/10/26 03:17:27;;;;;;;;;2.00;2.00;;;;;;;;4992867;28;46821;-79
2022/10/26 03:19:54;;;;;;;;;3.00;2.00;;;;;;;;5015102;28;45422;-86
2022/10/26 03:22:20;;;;;;;;;2.75;2.00;;;;;;;;5015057;28;45812;-82
2022/10/26 03:24:45;;;;;;;;;2.00;1.00;;;;;;;;5008511;28;46429;-80
2022/10/26 03:27:10;;;;;;;;;1.75;1.75;;;;;;;;5007710;28;45940;-79
2022/10/26 03:29:36;;;;;;;;;3.50;2.50;;;;;;;;4973724;28;45713;-77
2022/10/26 03:32:01;;;;;;;;;1.00;1.00;;;;;;;;4989119;28;45650;-77
2022/10/26 03:34:27;;;;;;;;;2.00;2.00;;;;;;;;5014506;28;45848;-78
2022/10/26 03:36:52;;;;;;;;;3.00;3.00;;;;;;;;4997680;28;47038;-83
2022/10/26 03:39:18;;;;;;;;;3.50;3.00;;;;;;;;5010842;28;45430;-78
2022/10/26 03:41:43;;;;;;;;;3.00;1.50;;;;;;;;4993466;28;45448;-78
2022/10/26 03:44:08;;;;;;;;;3.75;2.75;;;;;;;;5006046;28;45991;-77
2022/10/26 03:46:34;;;;;;;;;2.00;2.00;;;;;;;;5021119;28;46815;-82
2022/10/26 03:49:04;;;;;;;;;1.25;1.25;;;;;;;;5008225;28;45468;-82
2022/10/26 03:51:29;;;;;;;;;4.75;3.00;;;;;;;;5003451;28;45389;-82
2022/10/26 03:53:58;;;;;;;;;2.25;2.25;;;;;;;;5004722;28;45516;-82
2022/10/26 03:56:27;;;;;;;;;2.75;2.75;;;;;;;;5002012;28;45397;-83
2022/10/26 03:58:52;;;;;;;;;4.00;3.00;;;;;;;;4988611;28;45344;-79
2022/10/26 04:01:17;;;;;;;;;2.00;2.00;;;;;;;;4996430;28;45468;-78
2022/10/26 04:03:43;;;;;;;;;3.00;3.00;;;;;;;;4997148;28;45645;-82
2022/10/26 04:06:08;;;;;;;;;2.75;2.75;;;;;;;;5003406;28;47223;-84
2022/10/26 04:08:33;;;;;;;;;5.50;3.75;;;;;;;;4989860;28;45335;-76
2022/10/26 04:10:59;;;;;;;;;3.50;2.00;;;;;;;;4995887;28;45415;-78
2022/10/26 04:13:24;;;;;;;;;4.75;4.00;;;;;;;;4981931;28;45423;-85
2022/10/26 04:15:49;;;;;;;;;2.00;2.00;;;;;;;;4999916;28;47101;-84
2022/10/26 04:18:14;;;;;;;;;4.00;2.25;;;;;;;;4991475;28;45377;-84
2022/10/26 04:20:43;;;;;;;;;1.00;1.00;;;;;;;;4999500;28;45285;-78
2022/10/26 04:23:13;;;;;;;;;2.50;2.00;;;;;;;;4991291;28;45864;-81
2022/10/26 04:25:38;;;;;;;;;2.50;1.75;;;;;;;;5006846;28;45390;-79
2022/10/26 04:28:04;;;;;;;;;2.50;2.50;;;;;;;;4987470;28;45738;-78
2022/10/26 04:30:30;;;;;;;;;2.25;2.25;;;;;;;;4999295;28;45352;-84
2022/10/26 04:32:55;;;;;;;;;5.00;4.00;;;;;;;;4989451;28;46700;-85
2022/10/26 04:35:21;;;;;;;;;4.00;4.00;;;;;;;;4984275;28;46674;-76
2022/10/26 04:37:46;;;;;;;;;5.00;3.25;;;;;;;;4984667;28;45463;-78
2022/10/26 04:40:11;;;;;;;;;2.25;2.25;;;;;;;;4983026;28;45499;-78
2022/10/26 04:42:43;;;;;;;;;4.25;2.75;;;;;;;;4982708;28;47074;-77
2022/10/26 04:45:11;;;;;;;;;3.00;2.00;;;;;;;;5007441;28;45590;-77
2022/10/26 04:47:37;;;;;;;;;3.00;3.00;;;;;;;;4996548;28;46087;-80
2022/10/26 04:50:06;;;;;;;;;2.00;2.00;;;;;;;;4994939;28;45443;-80
2022/10/26 04:52:42;;;;;;;;;5.00;4.00;;;;;;;;5006757;28;45886;-80
2022/10/26 04:55:09;;;;;;;;;2.00;2.00;;;;;;;;5012127;28;45473;-84
2022/10/26 04:57:38;;;;;;;;;3.00;3.00;;;;;;;;5013783;28;45434;-85
2022/10/26 05:00:07;;;;;;;;;3.75;2.00;;;;;;;;5011116;28;45403;-86
2022/10/26 05:02:32;;;;;;;;;4.00;2.00;;;;;;;;5027359;28;45354;-85
2022/10/26 05:04:58;;;;;;;;;7.00;2.33;;;;;;;;5006025;28;47067;-84
2022/10/26 05:07:26;;;;;;;;;3.67;3.67;;;;;;;;5003235;28;45349;-82
2022/10/26 05:09:51;;;;;;;;;3.75;2.00;;;;;;;;5012183;28;45669;-81
2022/10/26 05:12:22;;;;;;;;;4.00;3.00;;;;;;;;5004002;28;45803;-90
2022/10/26 05:15:24;;;;;;;;;5.00;2.25;;;;;;;;5009764;28;47160;-86
2022/10/26 05:18:08;;;;;;;;;;;;;;;;;;;;;
2022/10/26 05:20:35;;;;;;;;;4.75;3.25;;;;;;;;5017935;28;68741;-84
2022/10/26 05:23:17;;;;;;;;;;;;;;;;;;;;;
2022/10/26 05:25:43;;;;;;;;;4.00;2.00;;;;;;;;5025586;28;74351;-85
2022/10/26 05:28:21;;;;;;;;;5.00;4.67;;;;;;;;5007155;28;45841;-85
2022/10/26 05:30:47;;;;;;;;;2.50;2.50;;;;;;;;5005750;28;45447;-83
2022/10/26 05:33:12;;;;;;;;;1.50;1.50;;;;;;;;4996943;28;45663;-84
2022/10/26 05:35:38;;;;;;;;;3.00;2.00;;;;;;;;4990753;28;46140;-82
2022/10/26 05:38:13;;;;;;;;;2.75;2.00;;;;;;;;5007805;28;45691;-80
2022/10/26 05:40:51;;;;;;;;;3.50;2.75;;;;;;;;4998057;28;45756;-83
2022/10/26 05:43:17;;;;;;;;;4.00;2.33;;;;;;;;5006497;28;46496;-83
2022/10/26 05:45:44;;;;;;;;;3.00;2.25;;;;;;;;5011984;28;45322;-85
2022/10/26 05:48:13;;;;;;;;;2.50;2.50;;;;;;;;5009220;28;44850;-85
2022/10/26 05:50:38;;;;;;;;;1.33;1.33;;;;;;;;5036784;27;44813;-85
2022/10/26 05:53:04;;;;;;;;;1.75;1.75;;;;;;;;5017919;28;45793;-87
2022/10/26 05:55:30;;;;;;;;;2.00;1.00;;;;;;;;5016285;28;45386;-85
2022/10/26 05:57:58;;;;;;;;;1.50;1.50;;;;;;;;5009430;28;45362;-80
2022/10/26 06:00:28;;;;;;;;;2.25;0.75;;;;;;;;5002910;28;45526;-81
2022/10/26 06:02:54;;;;;;;;;2.25;2.25;;;;;;;;5004932;28;46123;-87
2022/10/26 06:05:25;;;;;;;;;1.25;1.25;;;;;;;;5021226;28;45394;-86
2022/10/26 06:07:50;;;;;;;;;1.75;1.75;;;;;;;;5026311;28;45477;-85
2022/10/26 06:10:17;;;;;;;;;2.50;2.50;;;;;;;;5011996;28;45303;-86
2022/10/26 06:12:44;;;;;;;;;3.00;1.75;;;;;;;;5007609;28;45767;-84
2022/10/26 06:15:18;;;;;;;;;3.00;3.00;;;;;;;;5017316;28;45380;-84
2022/10/26 06:17:57;;;;;;;;;;;;;;;;;;;;;
2022/10/26 06:20:51;;;;;;;;;4.00;3.00;;;;;;;;5035684;28;46099;-89
2022/10/26 06:23:23;;;;;;;;;5.67;4.67;;;;;;;;5030296;28;44941;-86
2022/10/26 06:25:57;;;;;;;;;3.67;3.67;;;;;;;;5007347;28;45267;-86
2022/10/26 06:28:23;;;;;;;;;3.00;3.00;;;;;;;;5012895;28;45315;-82
2022/10/26 06:30:50;;;;;;;;;1.00;1.00;;;;;;;;5022441;28;45439;-83
2022/10/26 06:33:23;;;;;;;;;2.00;2.00;;;;;;;;5020090;28;45420;-86
2022/10/26 06:36:10;;;;;;;;;2.25;1.50;;;;;;;;5022015;28;45396;-85
2022/10/26 06:38:43;;;;;;;;;2.50;2.25;;;;;;;;5007176;28;45740;-84
2022/10/26 06:41:14;;;;;;;;;6.00;3.00;;;;;;;;5022346;28;45188;-85
2022/10/26 06:43:43;;;;;;;;;4.75;3.00;;;;;;;;5030850;28;46609;-85
2022/10/26 06:46:26;;;;;;;;;2.67;2.00;;;;;;;;5023668;28;45645;-83
2022/10/26 06:49:02;;;;;;;;;3.00;3.00;;;;;;;;5026007;28;45412;-81
2022/10/26 06:51:29;;;;;;;;;2.67;2.33;;;;;;;;4997138;28;45523;-81
2022/10/26 06:54:15;;;;;;;;;6.67;3.67;;;;;;;;5000475;28;45923;-82
2022/10/26 06:56:51;;;;;;;;;5.00;3.00;;;;;;;;5007647;28;45459;-87
2022/10/26 06:59:43;;;;;;;;;4.00;3.00;;;;;;;;5013976;28;45859;-86
2022/10/26 07:02:15;;;;;;;;;5.00;3.00;;;;;;;;5014510;28;45527;-84
2022/10/26 07:05:02;;;;;;;;;3.25;3.25;;;;;;;;5002592;28;44859;-88
2022/10/26 07:07:39;;;;;;;;;6.25;3.00;;;;;;;;5000280;28;46767;-84
2022/10/26 07:10:06;;;;;;;;;1.50;1.50;;;;;;;;5000223;28;45401;-82
2022/10/26 07:12:34;;;;;;;;;4.50;2.75;;;;;;;;5014927;28;45532;-85
2022/10/26 07:15:09;;;;;;;;;2.75;1.75;;;;;;;;5001974;28;46115;-83
2022/10/26 07:21:05;;;;;;;;;3.00;3.00;;;;;;;;5019126;28;45319;-83
2022/10/26 07:23:57;;;;;;;;;;;;;;;;;;;;;
2022/10/26 07:26:34;;;;;;;;;2.25;1.25;;;;;;;;5013832;28;73253;-84
2022/10/26 07:29:19;;;;;;;;;;;;;;;;;;;;;
2022/10/26 07:31:48;;;;;;;;;8.33;2.67;;;;;;;;5018690;28;72102;-84
2022/10/26 07:34:17;;;;;;;;;6.50;4.00;;;;;;;;5014906;28;45588;-83
2022/10/26 07:36:50;;;;;;;;;3.00;2.00;;;;;;;;4997629;28;46072;-82
2022/10/26 07:39:31;;;;;;;;;5.00;3.67;;;;;;;;5010514;28;45528;-83
2022/10/26 07:42:00;;;;;;;;;3.50;3.00;;;;;;;;5003209;28;45824;-84
2022/10/26 07:44:28;;;;;;;;;4.75;2.50;;;;;;;;5004338;28;45567;-88
2022/10/26 07:47:14;;;;;;;;;4.00;2.50;;;;;;;;5016291;28;45637;-88
2022/10/26 07:49:39;;;;;;;;;4.25;2.75;;;;;;;;4996862;28;46397;-86
2022/10/26 07:52:30;;;;;;;;;3.00;2.00;;;;;;;;5018426;28;45421;-85
2022/10/26 07:55:19;;;;;;;;;4.75;3.00;;;;;;;;5016871;28;46002;-85
2022/10/26 07:57:45;;;;;;;;;2.00;2.00;;;;;;;;5013030;28;45277;-82
2022/10/26 08:00:11;;;;;;;;;2.50;2.50;;;;;;;;5020725;28;45504;-85
2022/10/26 08:02:36;;;;;;;;;3.25;3.25;;;;;;;;5002823;28;45950;-84
2022/10/26 08:05:02;;;;;;;;;2.75;2.75;;;;;;;;5003301;28;45495;-86
2022/10/26 08:07:47;;;;;;;;;3.25;2.25;;;;;;;;5017138;28;45635;-84
2022/10/26 08:10:21;;;;;;;;;3.00;3.00;;;;;;;;5009706;28;46813;-84
2022/10/26 08:12:52;;;;;;;;;1.25;1.25;;;;;;;;5008654;28;45721;-87
2022/10/26 08:15:22;;;;;;;;;2.25;1.00;;;;;;;;5006077;28;45499;-84
2022/10/26 08:17:54;;;;;;;;;3.00;1.75;;;;;;;;5019718;28;45536;-86
2022/10/26 08:20:25;;;;;;;;;2.00;2.00;;;;;;;;5005815;28;45638;-85
2022/10/26 08:22:51;;;;;;;;;5.00;4.00;;;;;;;;5001399;28;45629;-81
2022/10/26 08:25:22;;;;;;;;;2.75;2.00;;;;;;;;5006627;28;45593;-82
2022/10/26 08:27:50;;;;;;;;;5.75;3.00;;;;;;;;5025794;28;45709;-85
2022/10/26 08:30:22;;;;;;;;;3.25;2.25;;;;;;;;5011229;28;45647;-86
2022/10/26 08:32:56;;;;;;;;;2.00;2.00;;;;;;;;5004198;28;45598;-83
2022/10/26 08:35:24;;;;;;;;;1.00;1.00;;;;;;;;5005092;28;46267;-83
2022/10/26 08:38:02;;;;;;;;;2.75;2.00;;;;;;;;5011457;28;45768;-83
2022/10/26 08:40:31;;;;;;;;;3.25;2.00;;;;;;;;4991754;28;45514;-82
2022/10/26 08:43:12;;;;;;;;;7.50;3.75;;;;;;;;5018992;28;45874;-87
2022/10/26 08:45:44;;;;;;;;;3.50;2.00;;;;;;;;5017516;28;44909;-85
2022/10/26 08:48:41;;;;;;;;;3.50;2.50;;;;;;;;5021519;28;46030;-84
2022/10/26 08:51:19;;;;;;;;;3.00;2.00;;;;;;;;4992336;28;45529;-82
2022/10/26 08:54:12;;;;;;;;;2.75;2.75;;;;;;;;5020940;28;45503;-86
2022/10/26 08:56:46;;;;;;;;;2.50;2.50;;;;;;;;5017116;28;44841;-86
2022/10/26 08:59:30;;;;;;;;;;;;;;;;;;;;;
2022/10/26 09:02:01;;;;;;;;;5.75;3.00;;;;;;;;5014150;28;74134;-87
2022/10/26 09:04:34;;;;;;;;;3.00;2.00;;;;;;;;5026121;28;45339;-86
2022/10/26 09:07:10;;;;;;;;;2.75;2.75;;;;;;;;5003584;28;45532;-85
2022/10/26 09:10:10;;;;;;;;;0.00;0.00;;;;;;;;5006815;28;46122;-87
2022/10/26 09:13:00;;;;;;;;;0.50;0.00;;;;;;;;5020397;28;45914;-87
2022/10/26 09:15:30;;;;;;;;;2.00;2.00;;;;;;;;5018249;28;46045;-84
2022/10/26 09:21:22;;;;;;;;;2.75;0.00;;;;;;;;4989871;28;45445;-86
2022/10/26 09:24:23;;;;;;;;;2.50;1.00;;;;;;;;5024412;28;46340;-82
2022/10/26 09:26:55;;;;;;;;;1.00;1.00;;;;;;;;4996883;28;45581;-85
2022/10/26 09:29:24;;;;;;;;;0.75;0.75;;;;;;;;5022110;28;45437;-86
2022/10/26 09:32:13;;;;;;;;;4.00;1.75;;;;;;;;5012670;28;45502;-84
2022/10/26 09:34:43;;;;;;;;;2.00;1.25;;;;;;;;4959131;28;46781;-83
2022/10/26 09:37:23;;;;;;;;;2.20;1.00;;;;;;;;5017815;28;45792;-85
2022/10/26 09:40:09;;;;;;;;;2.75;1.00;;;;;;;;5002088;28;45365;-85
2022/10/26 09:42:48;;;;;;;;;4.00;1.00;;;;;;;;5011852;28;46113;-84
2022/10/26 09:45:17;;;;;;;;;1.60;1.00;;;;;;;;5023750;28;45548;-86
2022/10/26 09:47:50;;;;;;;;;0.80;0.80;;;;;;;;5010007;28;45105;-87
2022/10/26 09:50:19;;;;;;;;;1.50;1.50;;;;;;;;5003626;28;45483;-84
2022/10/26 09:52:49;;;;;;;;;0.25;0.25;;;;;;;;5002147;28;45563;-87
2022/10/26 09:55:29;;;;;;;;;0.60;0.60;;;;;;;;5004855;28;46656;-87
2022/10/26 09:58:06;;;;;;;;;0.20;0.20;;;;;;;;5017045;28;45380;-84
2022/10/26 10:00:47;;;;;;;;;0.00;0.00;;;;;;;;5015713;28;45775;-86
2022/10/26 10:03:39;;;;;;;;;0.25;0.00;;;;;;;;5001119;28;47053;-86
2022/10/26 10:06:37;;;;;;;;;1.00;0.20;;;;;;;;4998210;28;47178;-84
2022/10/26 10:09:29;;;;;;;;;0.00;0.00;;;;;;;;4982792;28;45505;-86
2022/10/26 10:12:01;;;;;;;;;0.20;0.20;;;;;;;;5006258;28;44819;-87
2022/10/26 10:14:46;;;;;;;;;1.75;1.50;;;;;;;;5008557;28;46141;-86
2022/10/26 10:17:38;;;;;;;;;0.00;0.00;;;;;;;;5017842;28;46333;-87
2022/10/26 10:20:14;;;;;;;;;0.00;0.00;;;;;;;;4999599;28;45459;-85
2022/10/26 10:22:59;;;;;;;;;1.60;0.60;;;;;;;;5005114;28;44802;-85
2022/10/26 10:25:31;;;;;;;;;2.75;1.00;;;;;;;;5022080;28;45546;-87
2022/10/26 10:28:22;;;;;;;;;1.75;1.00;;;;;;;;5013532;28;46449;-86
2022/10/26 10:31:42;;;;;;;;;1.60;1.00;;;;;;;;5014109;28;44825;-86
2022/10/26 10:34:03;;;;;;;;;1.00;1.00;;;;;;;;4983284;28;45752;-84
2022/10/26 10:36:35;;;;;;;;;2.00;2.00;;;;;;;;4992390;28;45986;-84
2022/10/26 10:39:37;;;;;;;;;4.25;2.25;;;;;;;;5005455;28;45664;-85
2022/10/26 10:43:12;;;;;;;;;21.00;18.00;;;;;;;;4994204;28;45528;-85
2022/10/26 10:45:40;;;;;;;;;31.00;29.00;;;;;;;;5004113;28;45680;-86
2022/10/26 10:48:41;;;;;;;;;13.50;11.75;;;;;;;;5016884;28;45577;-86
2022/10/26 10:51:11;;;;;;;;;8.75;7.75;;;;;;;;4960063;28;47270;-83
2022/10/26 10:54:03;;;;;;;;;9.75;8.00;;;;;;;;5001502;28;45420;-86
2022/10/26 11:03:06;;;;;;;;;3.00;2.00;;;;;;;;5022928;28;45149;-85
2022/10/26 11:06:04;;;;;;;;;2.50;2.50;;;;;;;;5020154;28;45348;-86
2022/10/26 11:08:57;;;;;;;;;7.25;6.25;;;;;;;;5020392;28;44776;-84
2022/10/26 11:18:25;;;;;;;;;4.20;2.00;;;;;;;;4985469;28;45570;-91
2022/10/26 11:21:07;;;;;;;;;1.25;1.25;;;;;;;;5024680;28;45371;-84
2022/10/26 11:27:25;;;;;;;;;;;;;;;;;;;;;
2022/10/26 11:30:01;;;;;;;;;2.00;2.00;;;;;;;;4958514;28;73303;-88
2022/10/26 11:32:39;;;;;;;;;5.50;3.75;;;;;;;;4999790;28;45530;-87
2022/10/26 11:35:38;;;;;;;;;4.75;3.00;;;;;;;;5016062;28;45379;-88
2022/10/26 11:38:55;;;;;;;;;;;;;;;;;;;;;
2022/10/26 11:41:34;;;;;;;;;4.75;4.00;;;;;;;;5017079;28;72156;-90
2022/10/26 11:44:13;;;;;;;;;1.75;1.75;;;;;;;;5000060;28;45585;-85
2022/10/26 11:47:09;;;;;;;;;6.00;1.50;;;;;;;;5005169;28;45863;-86
2022/10/26 11:56:43;;;;;;;;;;;;;;;;;;;;;
2022/10/26 11:59:55;;;;;;;;;;;;;;;;;;;;;
2022/10/26 12:02:27;;;;;;;;;0.00;0.00;;;;;;;;4903741;29;74151;-87
2022/10/26 12:05:16;;;;;;;;;1.75;1.25;;;;;;;;5010398;28;45633;-86
2022/10/26 12:11:44;;;;;;;;;;;;;;;;;;;;;
2022/10/26 12:14:51;;;;;;;;;2.25;1.00;;;;;;;;4950913;28;74501;-85
2022/10/26 12:17:39;;;;;;;;;1.25;1.25;;;;;;;;5024625;28;44892;-87
2022/10/26 12:20:54;;;;;;;;;3.00;2.00;;;;;;;;5006126;28;45586;-89
2022/10/26 12:23:38;;;;;;;;;1.25;1.25;;;;;;;;5019331;28;45594;-88
2022/10/26 12:29:49;;;;;;;;;1.75;0.75;;;;;;;;5030266;28;45657;-87
2022/10/26 12:36:32;;;;;;;;;;;;;;;;;;;;;
2022/10/26 12:39:22;;;;;;;;;0.25;0.25;;;;;;;;5008632;28;74752;-87
2022/10/26 12:41:54;;;;;;;;;5.00;1.00;;;;;;;;5015445;28;45434;-84
2022/10/26 12:44:49;;;;;;;;;0.50;0.00;;;;;;;;5029713;28;45399;-83
2022/10/26 12:47:35;;;;;;;;;1.00;1.00;;;;;;;;5007636;28;44828;-83
2022/10/26 12:50:05;;;;;;;;;2.00;1.00;;;;;;;;5018366;28;46511;-83
2022/10/26 12:52:54;;;;;;;;;3.75;2.75;;;;;;;;5021639;28;45938;-86
2022/10/26 12:55:22;;;;;;;;;0.50;0.25;;;;;;;;5002388;28;45876;-84
2022/10/26 13:01:21;;;;;;;;;5.50;2.00;;;;;;;;5011955;28;45586;-90
2022/10/26 13:04:13;;;;;;;;;;;;;;;;;;;;;
2022/10/26 13:06:50;;;;;;;;;1.00;1.00;;;;;;;;5024419;28;67883;-86
2022/10/26 13:09:20;;;;;;;;;4.75;2.00;;;;;;;;5021345;28;45448;-89
2022/10/26 13:11:59;;;;;;;;;1.75;1.00;;;;;;;;5008615;28;46919;-87
2022/10/26 13:14:36;;;;;;;;;1.00;1.00;;;;;;;;5009709;28;45786;-87
2022/10/26 13:17:18;;;;;;;;;2.00;1.00;;;;;;;;5021359;28;45559;-86
2022/10/26 13:19:47;;;;;;;;;1.00;1.00;;;;;;;;5007499;28;45389;-88
2022/10/26 13:22:40;;;;;;;;;2.00;1.00;;;;;;;;5025749;28;45305;-86
2022/10/26 13:28:59;;;;;;;;;;;;;;;;;;;;;
2022/10/26 13:31:20;;;;;;;;;2.25;1.00;;;;;;;;5019534;28;45847;-85
2022/10/26 13:34:11;;;;;;;;;;;;;;;;;;;;;
2022/10/26 13:36:54;;;;;;;;;0.50;0.00;;;;;;;;5012110;28;73189;-86
2022/10/26 13:39:36;;;;;;;;;0.00;0.00;;;;;;;;5004107;28;45791;-88
2022/10/26 13:42:30;;;;;;;;;2.75;0.00;;;;;;;;5011221;28;46047;-88
2022/10/26 13:45:11;;;;;;;;;1.00;1.00;;;;;;;;5039634;28;46169;-89
2022/10/26 13:47:59;;;;;;;;;2.00;1.75;;;;;;;;5026486;28;45450;-88
2022/10/26 13:50:26;;;;;;;;;1.00;1.00;;;;;;;;5009483;28;45301;-85
2022/10/26 13:53:37;;;;;;;;;0.50;0.50;;;;;;;;4998627;28;46909;-86
2022/10/26 13:57:12;;;;;;;;;2.50;1.50;;;;;;;;4995909;28;45818;-87
2022/10/26 13:59:22;;;;;;;;;;;;;;;;;;;;;
2022/10/26 14:02:29;;;;;;;;;1.00;0.00;;;;;;;;5002643;28;68197;-86
2022/10/26 14:05:13;;;;;;;;;;;;;;;;;;;;;
2022/10/26 14:08:07;;;;;;;;;0.25;0.25;;;;;;;;4995447;28;74460;-86
2022/10/26 14:11:01;;;;;;;;;0.00;0.00;;;;;;;;4984092;28;45652;-84
2022/10/26 14:16:45;;;;;;;;;1.25;1.00;;;;;;;;4994956;28;45466;-86
2022/10/26 14:19:35;;;;;;;;;1.00;0.75;;;;;;;;5004076;28;45843;-84
2022/10/26 14:22:09;;;;;;;;;0.25;0.25;;;;;;;;4997075;28;45906;-85
2022/10/26 14:24:49;;;;;;;;;;;;;;;;;;;;;
2022/10/26 14:28:07;;;;;;;;;0.50;0.50;;;;;;;;4997280;28;74393;-90
2022/10/26 14:30:33;;;;;;;;;1.25;1.25;;;;;;;;4963680;28;46167;-86
2022/10/26 14:33:03;;;;;;;;;2.00;1.00;;;;;;;;4958873;28;45453;-85
2022/10/26 14:36:06;;;;;;;;;;;;;;;;;;;;;
2022/10/26 14:39:34;;;;;;;;;;;;;;;;;;;;;
2022/10/26 14:41:41;;;;;;;;;2.00;1.00;;;;;;;;5000576;28;46714;-86
2022/10/26 14:44:58;;;;;;;;;;;;;;;;;;;;;
2022/10/26 14:48:31;;;;;;;;;0.25;0.00;;;;;;;;4963191;28;45515;-90
2022/10/26 14:54:18;;;;;;;;;0.25;0.25;;;;;;;;4965001;28;45540;-87
2022/10/26 14:57:11;;;;;;;;;;;;;;;;;;;;;
2022/10/26 14:59:55;;;;;;;;;1.00;1.00;;;;;;;;5009747;28;68458;-87
2022/10/26 15:02:37;;;;;;;;;3.50;1.00;;;;;;;;5015328;28;45884;-85
2022/10/26 15:05:28;;;;;;;;;1.00;1.00;;;;;;;;5026769;28;46885;-86
2022/10/26 15:07:55;;;;;;;;;0.75;0.75;;;;;;;;5003871;28;45407;-85
2022/10/26 15:10:39;;;;;;;;;1.00;1.00;;;;;;;;5014857;28;45915;-88
2022/10/26 15:13:24;;;;;;;;;2.00;2.00;;;;;;;;5019862;28;46044;-86
2022/10/26 15:16:01;;;;;;;;;0.50;0.00;;;;;;;;5013725;28;45439;-88
2022/10/26 15:18:42;;;;;;;;;3.00;1.00;;;;;;;;5024474;28;44867;-91
2022/10/26 15:21:24;;;;;;;;;2.00;1.00;;;;;;;;5021360;28;45438;-84
2022/10/26 15:23:50;;;;;;;;;0.25;0.25;;;;;;;;5011454;28;45868;-86
2022/10/26 15:26:19;;;;;;;;;1.00;1.00;;;;;;;;5014353;28;46491;-86
2022/10/26 15:28:46;;;;;;;;;1.25;1.25;;;;;;;;5014679;28;45411;-85
2022/10/26 15:31:11;;;;;;;;;1.00;1.00;;;;;;;;5012401;28;45335;-85
2022/10/26 15:33:52;;;;;;;;;0.75;0.75;;;;;;;;5017883;28;45722;-78
2022/10/26 15:36:17;;;;;;;;;1.00;1.00;;;;;;;;5012625;28;46294;-84
2022/10/26 15:38:43;;;;;;;;;1.00;1.00;;;;;;;;5019215;28;45400;-85
2022/10/26 15:41:23;;;;;;;;;1.75;1.75;;;;;;;;5011701;28;45538;-80
2022/10/26 15:43:49;;;;;;;;;0.75;0.75;;;;;;;;5015588;28;46395;-76
2022/10/26 15:46:15;;;;;;;;;0.00;0.00;;;;;;;;5016581;28;46214;-78
2022/10/26 15:48:40;;;;;;;;;1.25;1.00;;;;;;;;5004167;28;45455;-84
2022/10/26 15:51:10;;;;;;;;;1.00;1.00;;;;;;;;5015454;28;45416;-85
2022/10/26 15:53:35;;;;;;;;;0.00;0.00;;;;;;;;5022163;28;45795;-77
2022/10/26 15:56:01;;;;;;;;;2.00;1.00;;;;;;;;5024035;28;45531;-79
2022/10/26 15:58:28;;;;;;;;;3.75;1.00;;;;;;;;5047436;28;45698;-85
2022/10/26 16:00:53;;;;;;;;;1.00;1.00;;;;;;;;5062330;28;45711;-86
2022/10/26 16:03:20;;;;;;;;;0.00;0.00;;;;;;;;5060251;28;45316;-87
2022/10/26 16:05:46;;;;;;;;;2.00;1.00;;;;;;;;5047287;28;46675;-83
2022/10/26 16:08:14;;;;;;;;;1.25;1.25;;;;;;;;5043419;28;45441;-86
2022/10/26 16:10:40;;;;;;;;;0.25;0.25;;;;;;;;5060154;28;45437;-83
2022/10/26 16:13:11;;;;;;;;;1.75;1.75;;;;;;;;5061356;28;45511;-86
2022/10/26 16:15:36;;;;;;;;;1.00;1.00;;;;;;;;5060826;28;45529;-85
2022/10/26 16:18:01;;;;;;;;;1.00;1.00;;;;;;;;5051439;28;45357;-86
2022/10/26 16:20:29;;;;;;;;;2.00;2.00;;;;;;;;5038209;28;45494;-85
2022/10/26 16:22:55;;;;;;;;;2.50;1.00;;;;;;;;5037940;28;46093;-88
2022/10/26 16:25:23;;;;;;;;;3.50;2.50;;;;;;;;5049364;27;46566;-86
2022/10/26 16:27:52;;;;;;;;;1.00;0.75;;;;;;;;5053109;28;45733;-86
2022/10/26 16:33:17;;;;;;;;;1.50;1.50;;;;;;;;5059228;28;44730;-86
2022/10/26 16:35:44;;;;;;;;;2.00;0.50;;;;;;;;5065730;28;46240;-90
2022/10/26 16:41:21;;;;;;;;;2.25;1.00;;;;;;;;5024848;28;45473;-85
2022/10/26 17:12:53;;;;;;;;;3.25;1.50;;;;;;;;5060018;22;47752;-74
2022/10/26 17:15:25;;;;;;;;;2.50;2.50;;;;;;;;5040457;28;45852;-75
2022/10/26 17:17:51;;;;;;;;;1.50;0.00;;;;;;;;5043193;28;45936;-76
2022/10/26 17:20:22;;;;;;;;;2.50;2.50;;;;;;;;5044567;28;45610;-76